Time;durP1;ratioP1;P1;durP2;ratioP2;P2;SDS_P1;SDS_P2;PMS_P1;PMS_P2;Temp;Humidity;BMP_temperature;BMP_pressure;BME280_temperature;BME280_humidity;BME280_pressure;Samples;Min_cycle;Max_cycle;Signal;HPM_P1;HPM_P2
2023/01/19 00:01:25;;;;;;;19.63;12.27;;;1.10;99.90;;;;;;5039244;28;20194;-73
2023/01/19 00:03:51;;;;;;;17.65;13.90;;;1.20;99.90;;;;;;5036390;28;20182;-69
2023/01/19 00:06:17;;;;;;;17.25;12.90;;;1.20;99.90;;;;;;5031377;28;20656;-73
2023/01/19 00:08:44;;;;;;;22.52;12.75;;;1.20;99.90;;;;;;5033530;28;20179;-73
2023/01/19 00:11:11;;;;;;;19.33;13.52;;;1.20;99.90;;;;;;5033233;28;20247;-72
2023/01/19 00:13:38;;;;;;;20.58;13.77;;;1.20;99.90;;;;;;5044116;28;20170;-72
2023/01/19 00:16:04;;;;;;;20.88;13.70;;;1.20;99.90;;;;;;5050510;28;20209;-72
2023/01/19 00:18:30;;;;;;;20.80;14.15;;;1.20;99.90;;;;;;5052606;28;20523;-70
2023/01/19 00:20:56;;;;;;;20.20;13.07;;;1.20;99.90;;;;;;5048433;28;20254;-73
2023/01/19 00:23:21;;;;;;;16.10;12.53;;;1.30;99.90;;;;;;5033077;28;20175;-73
2023/01/19 00:25:48;;;;;;;25.87;15.13;;;1.30;99.90;;;;;;5033202;28;20674;-70
2023/01/19 00:28:15;;;;;;;25.73;15.27;;;1.30;99.90;;;;;;5049465;28;20531;-69
2023/01/19 00:30:42;;;;;;;22.75;14.60;;;1.30;99.90;;;;;;5051487;28;20171;-73
2023/01/19 00:33:09;;;;;;;20.40;13.95;;;1.30;99.90;;;;;;5033032;28;20180;-72
2023/01/19 00:35:35;;;;;;;22.77;14.88;;;1.30;99.90;;;;;;5031218;28;20212;-72
2023/01/19 00:38:02;;;;;;;19.63;14.40;;;1.30;99.90;;;;;;5052602;28;20175;-67
2023/01/19 00:40:27;;;;;;;18.67;13.60;;;1.40;99.90;;;;;;5052826;28;20167;-70
2023/01/19 00:42:53;;;;;;;23.33;16.10;;;1.40;99.90;;;;;;5034777;28;20682;-69
2023/01/19 00:45:22;;;;;;;21.15;14.80;;;1.40;99.90;;;;;;5031935;28;20180;-72
2023/01/19 00:47:53;;;;;;;20.80;13.40;;;1.50;99.90;;;;;;5049145;28;20292;-70
2023/01/19 00:50:19;;;;;;;20.27;12.32;;;1.50;1.00;;;;;;5052960;28;20501;-72
2023/01/19 00:52:45;;;;;;;24.10;13.93;;;1.50;1.00;;;;;;5036490;28;20246;-67
2023/01/19 00:55:12;;;;;;;20.80;14.27;;;1.50;1.00;;;;;;5031797;28;20190;-69
2023/01/19 00:57:39;;;;;;;20.07;13.93;;;1.60;1.00;;;;;;5046507;28;20623;-67
2023/01/19 01:00:08;;;;;;;21.80;14.63;;;1.60;1.00;;;;;;5052714;28;20492;-72
2023/01/19 01:02:33;;;;;;;18.80;13.80;;;1.60;1.00;;;;;;5039839;28;20922;-70
2023/01/19 01:05:01;;;;;;;22.43;14.77;;;1.70;1.00;;;;;;5039903;28;20202;-73
2023/01/19 01:07:28;;;;;;;20.02;15.93;;;1.70;1.00;;;;;;5052529;28;20195;-70
2023/01/19 01:09:55;;;;;;;14.85;12.55;;;1.80;1.00;;;;;;5043919;28;20202;-72
2023/01/19 01:12:22;;;;;;;20.27;14.43;;;1.80;99.90;;;;;;5032846;28;20175;-72
2023/01/19 01:14:47;;;;;;;19.45;15.70;;;1.80;99.90;;;;;;5036617;28;20230;-73
2023/01/19 01:17:13;;;;;;;28.53;13.90;;;1.80;99.90;;;;;;5042517;28;20203;-72
2023/01/19 01:19:42;;;;;;;22.87;14.60;;;1.80;99.90;;;;;;5033721;28;20201;-67
2023/01/19 01:22:08;;;;;;;19.50;14.53;;;1.80;99.90;;;;;;5043472;28;20447;-70
2023/01/19 01:24:35;;;;;;;25.95;14.90;;;1.80;99.90;;;;;;5030312;28;20435;-71
2023/01/19 01:27:00;;;;;;;22.37;15.50;;;1.80;99.90;;;;;;5042694;28;20202;-70
2023/01/19 01:29:26;;;;;;;19.47;15.40;;;1.70;99.90;;;;;;5035545;28;20764;-70
2023/01/19 01:31:52;;;;;;;18.87;12.73;;;1.80;99.90;;;;;;5032600;28;20183;-68
2023/01/19 01:34:18;;;;;;;22.07;14.30;;;1.80;99.90;;;;;;5030793;28;20226;-73
2023/01/19 01:36:43;;;;;;;15.00;13.38;;;1.80;99.90;;;;;;5051738;28;20233;-72
2023/01/19 01:39:09;;;;;;;20.83;14.20;;;1.80;99.90;;;;;;5052449;28;20198;-72
2023/01/19 01:41:35;;;;;;;23.30;15.17;;;1.70;99.90;;;;;;5034251;28;20222;-70
2023/01/19 01:44:05;;;;;;;23.48;13.73;;;1.80;99.90;;;;;;5045913;28;20174;-70
2023/01/19 01:46:31;;;;;;;20.23;15.90;;;1.80;99.90;;;;;;5038941;28;20578;-72
2023/01/19 01:49:13;;;;;;;27.43;14.97;;;1.80;99.90;;;;;;5034774;28;20262;-73
2023/01/19 01:51:49;;;;;;;20.77;14.57;;;1.80;99.90;;;;;;5049733;28;20428;-67
2023/01/19 01:54:23;;;;;;;19.20;14.77;;;1.80;99.90;;;;;;5054471;28;20527;-67
2023/01/19 01:56:52;;;;;;;19.30;13.93;;;1.80;99.90;;;;;;5053937;28;20508;-69
2023/01/19 01:59:25;;;;;;;19.50;12.40;;;1.80;99.90;;;;;;5054708;28;20421;-73
2023/01/19 02:04:47;;;;;;;21.50;14.20;;;1.90;99.90;;;;;;5034180;28;20730;-70
2023/01/19 02:15:32;;;;;;;18.60;13.30;;;2.00;99.90;;;;;;5035635;28;20844;-67
2023/01/19 02:17:58;;;;;;;18.67;13.40;;;2.00;99.90;;;;;;5034401;28;20422;-70
2023/01/19 02:20:29;;;;;;;13.93;12.00;;;2.00;99.90;;;;;;5038644;28;20301;-69
2023/01/19 02:23:00;;;;;;;23.97;14.47;;;2.10;99.90;;;;;;5034891;28;20167;-68
2023/01/19 02:25:25;;;;;;;28.95;13.55;;;2.10;99.90;;;;;;5034534;28;20520;-67
2023/01/19 02:27:51;;;;;;;18.97;13.73;;;2.10;99.90;;;;;;5035181;28;20283;-68
2023/01/19 02:30:18;;;;;;;17.70;14.17;;;2.10;99.90;;;;;;5037894;28;20707;-70
2023/01/19 02:32:44;;;;;;;19.10;13.30;;;2.20;99.90;;;;;;5055166;28;20393;-68
2023/01/19 02:35:11;;;;;;;24.20;15.60;;;2.20;99.90;;;;;;5047099;28;20435;-69
2023/01/19 02:37:39;;;;;;;17.83;12.63;;;2.20;99.90;;;;;;5035308;28;20414;-73
2023/01/19 02:40:11;;;;;;;18.27;13.13;;;2.30;99.90;;;;;;5039933;28;20434;-70
2023/01/19 02:42:43;;;;;;;20.83;14.33;;;2.30;99.90;;;;;;5054903;28;20405;-70
2023/01/19 02:45:13;;;;;;;11.67;9.80;;;2.20;99.90;;;;;;5048281;28;20442;-70
2023/01/19 02:47:45;;;;;;;21.92;13.55;;;2.20;99.90;;;;;;5034870;28;21020;-72
2023/01/19 02:50:48;;;;;;;19.90;15.30;;;2.30;99.90;;;;;;5034886;28;20186;-72
2023/01/19 02:53:22;;;;;;;22.50;15.40;;;2.30;99.90;;;;;;5034808;28;20391;-70
2023/01/19 02:56:35;;;;;;;24.43;13.67;;;2.30;99.90;;;;;;5044578;28;20960;-72
2023/01/19 02:59:42;;;;;;;18.40;14.40;;;2.30;99.90;;;;;;5054267;28;20456;-71
2023/01/19 03:02:25;;;;;;;25.23;15.23;;;2.30;99.90;;;;;;5033541;28;20421;-69
2023/01/19 03:05:11;;;;;;;23.67;13.82;;;2.30;99.90;;;;;;5035713;28;20550;-73
2023/01/19 03:08:16;;;;;;;18.50;12.27;;;2.30;99.90;;;;;;5054444;28;20198;-74
2023/01/19 03:10:53;;;;;;;18.38;13.00;;;2.30;99.90;;;;;;5043986;28;20547;-73
2023/01/19 03:13:31;;;;;;;18.93;12.10;;;2.30;99.90;;;;;;5033974;28;20166;-73
2023/01/19 03:16:11;;;;;;;21.00;13.27;;;2.30;99.90;;;;;;5043473;28;20441;-71
2023/01/19 03:18:41;;;;;;;21.50;15.25;;;2.30;99.90;;;;;;5034181;28;20414;-73
2023/01/19 03:21:09;;;;;;;15.50;12.70;;;2.30;99.90;;;;;;5045320;28;20263;-70
2023/01/19 03:23:39;;;;;;;19.10;13.20;;;2.30;99.90;;;;;;5054149;28;20409;-70
2023/01/19 03:26:08;;;;;;;19.40;13.53;;;2.40;99.90;;;;;;5042424;28;20607;-70
2023/01/19 03:28:37;;;;;;;18.83;13.63;;;2.30;99.90;;;;;;5034106;28;20844;-70
2023/01/19 03:31:26;;;;;;;20.73;13.88;;;2.30;99.90;;;;;;5035627;28;20418;-72
2023/01/19 03:33:59;;;;;;;19.23;13.30;;;2.40;99.90;;;;;;5033214;28;20179;-72
2023/01/19 03:36:31;;;;;;;23.60;12.77;;;2.40;99.90;;;;;;5033218;28;20445;-72
2023/01/19 03:38:59;;;;;;;18.75;14.23;;;2.40;99.90;;;;;;5033922;28;20871;-74
2023/01/19 03:41:27;;;;;;;17.10;13.23;;;2.40;99.90;;;;;;5048766;28;20186;-72
2023/01/19 03:43:55;;;;;;;24.30;13.97;;;2.40;99.90;;;;;;5041045;28;20270;-71
2023/01/19 03:46:23;;;;;;;15.90;12.77;;;2.40;99.90;;;;;;5050430;28;20809;-74
2023/01/19 03:48:49;;;;;;;19.07;13.13;;;2.40;99.90;;;;;;5041044;28;20419;-69
2023/01/19 03:51:16;;;;;;;19.90;12.43;;;2.40;99.90;;;;;;5032664;28;20418;-72
2023/01/19 03:53:42;;;;;;;16.27;13.73;;;2.40;99.90;;;;;;5042250;28;20417;-75
2023/01/19 03:56:22;;;;;;;18.30;13.57;;;2.40;99.90;;;;;;5052322;28;20198;-73
2023/01/19 03:58:49;;;;;;;19.97;13.73;;;2.40;99.90;;;;;;5043590;28;20757;-75
2023/01/19 04:01:15;;;;;;;17.53;12.47;;;2.40;99.90;;;;;;5050077;28;20440;-75
2023/01/19 04:03:42;;;;;;;24.67;14.90;;;2.40;99.90;;;;;;5045349;28;20418;-74
2023/01/19 04:06:09;;;;;;;13.60;11.63;;;2.30;99.90;;;;;;5032458;28;20958;-75
2023/01/19 04:08:35;;;;;;;20.90;15.47;;;2.30;99.90;;;;;;5038732;28;20413;-75
2023/01/19 04:11:01;;;;;;;17.13;12.40;;;2.40;99.90;;;;;;5052913;28;20896;-75
2023/01/19 04:13:29;;;;;;;21.13;15.20;;;2.40;99.90;;;;;;5048489;28;20406;-76
2023/01/19 04:16:05;;;;;;;12.83;10.73;;;2.40;99.90;;;;;;5032336;28;20424;-74
2023/01/19 04:18:32;;;;;;;18.77;14.00;;;2.40;99.90;;;;;;5049556;28;20816;-75
2023/01/19 04:21:04;;;;;;;19.63;12.90;;;2.40;99.90;;;;;;5040257;28;20179;-75
2023/01/19 04:23:30;;;;;;;19.00;12.60;;;2.40;99.90;;;;;;5031945;28;20418;-75
2023/01/19 04:26:03;;;;;;;19.00;14.60;;;2.40;99.90;;;;;;5043568;28;20429;-73
2023/01/19 04:28:29;;;;;;;17.50;13.30;;;2.40;99.90;;;;;;5051130;28;20405;-77
2023/01/19 04:30:55;;;;;;;17.03;12.77;;;2.50;99.90;;;;;;5041958;28;20458;-74
2023/01/19 04:33:21;;;;;;;19.83;13.00;;;2.50;99.90;;;;;;5033043;28;20430;-76
2023/01/19 04:35:48;;;;;;;14.47;11.27;;;2.50;99.90;;;;;;5035526;28;20461;-77
2023/01/19 04:38:14;;;;;;;23.37;15.10;;;2.40;99.90;;;;;;5033219;28;20498;-76
2023/01/19 04:40:40;;;;;;;23.00;15.73;;;2.40;99.90;;;;;;5034524;28;20493;-75
2023/01/19 04:43:06;;;;;;;17.47;13.07;;;2.40;99.90;;;;;;5051852;28;20974;-75
2023/01/19 04:45:32;;;;;;;15.80;11.83;;;2.40;99.90;;;;;;5041569;28;20184;-73
2023/01/19 04:47:58;;;;;;;17.10;12.80;;;2.50;99.90;;;;;;5032417;28;20962;-75
2023/01/19 04:50:24;;;;;;;22.88;15.07;;;2.40;99.90;;;;;;5036250;28;20644;-75
2023/01/19 04:52:50;;;;;;;24.73;13.60;;;2.40;99.90;;;;;;5032954;28;20270;-76
2023/01/19 04:55:16;;;;;;;19.27;13.47;;;2.40;99.90;;;;;;5032608;28;20194;-74
2023/01/19 04:57:42;;;;;;;23.77;12.80;;;2.40;99.90;;;;;;5045445;28;20429;-75
2023/01/19 05:00:09;;;;;;;16.35;13.50;;;2.40;99.90;;;;;;5042789;28;20433;-73
2023/01/19 05:02:35;;;;;;;12.30;10.80;;;2.40;99.90;;;;;;5033723;28;20389;-73
2023/01/19 05:05:03;;;;;;;15.87;10.53;;;2.50;99.90;;;;;;5051265;28;20417;-73
2023/01/19 05:07:29;;;;;;;18.38;13.35;;;2.50;99.90;;;;;;5050223;28;20985;-74
2023/01/19 05:09:55;;;;;;;21.60;14.10;;;2.50;99.90;;;;;;5034362;28;20193;-73
2023/01/19 05:12:20;;;;;;;20.93;12.20;;;2.50;99.90;;;;;;5052733;28;20525;-74
2023/01/19 05:14:46;;;;;;;27.47;12.70;;;2.50;99.90;;;;;;5032447;28;20199;-77
2023/01/19 05:17:12;;;;;;;17.50;11.97;;;2.50;99.90;;;;;;5032705;28;20636;-73
2023/01/19 05:19:38;;;;;;;19.03;13.70;;;2.50;99.90;;;;;;5043277;28;20182;-76
2023/01/19 05:22:04;;;;;;;19.27;12.43;;;2.40;99.90;;;;;;5033530;28;20176;-76
2023/01/19 05:24:30;;;;;;;17.73;12.75;;;2.50;99.90;;;;;;5035312;28;20196;-77
2023/01/19 05:26:56;;;;;;;21.33;14.30;;;2.50;99.90;;;;;;5050534;28;20663;-77
2023/01/19 05:29:22;;;;;;;17.57;14.00;;;2.50;99.90;;;;;;5056395;28;20448;-77
2023/01/19 05:31:48;;;;;;;16.33;11.97;;;2.50;99.90;;;;;;5043410;28;20783;-74
2023/01/19 05:34:14;;;;;;;20.70;14.23;;;2.50;99.90;;;;;;5039896;28;20453;-76
2023/01/19 05:36:40;;;;;;;19.57;12.93;;;2.50;99.90;;;;;;5035476;28;20194;-74
2023/01/19 05:39:06;;;;;;;15.68;11.65;;;2.50;99.90;;;;;;5042126;28;20770;-75
2023/01/19 05:41:32;;;;;;;17.27;11.70;;;2.50;99.90;;;;;;5055559;28;20171;-75
2023/01/19 05:43:58;;;;;;;17.03;12.20;;;2.50;99.90;;;;;;5038020;28;20779;-77
2023/01/19 05:46:24;;;;;;;18.27;13.67;;;2.50;99.90;;;;;;5046075;28;20197;-76
2023/01/19 05:48:50;;;;;;;19.50;14.27;;;2.50;99.90;;;;;;5055967;28;20175;-73
2023/01/19 05:51:16;;;;;;;18.45;11.27;;;2.50;99.90;;;;;;5046264;28;20514;-74
2023/01/19 05:53:41;;;;;;;16.90;12.07;;;2.50;99.90;;;;;;5035993;28;20579;-75
2023/01/19 05:56:08;;;;;;;16.63;12.37;;;2.50;99.90;;;;;;5034941;28;20449;-78
2023/01/19 05:58:38;;;;;;;20.63;12.32;;;2.50;99.90;;;;;;5035722;28;20665;-74
2023/01/19 06:01:06;;;;;;;14.45;11.65;;;2.50;99.90;;;;;;5052204;28;20206;-77
2023/01/19 06:03:32;;;;;;;23.50;14.80;;;2.50;99.90;;;;;;5054743;28;20194;-75
2023/01/19 06:05:59;;;;;;;19.50;13.70;;;2.50;99.90;;;;;;5038115;28;20249;-77
2023/01/19 06:08:25;;;;;;;22.10;13.37;;;2.50;99.90;;;;;;5035576;28;20399;-77
2023/01/19 06:10:50;;;;;;;21.50;15.33;;;2.50;99.90;;;;;;5049816;28;20425;-78
2023/01/19 06:13:16;;;;;;;18.40;14.37;;;2.40;99.90;;;;;;5054432;28;20461;-74
2023/01/19 06:15:43;;;;;;;21.27;14.60;;;2.40;99.90;;;;;;5040668;28;20227;-78
2023/01/19 06:18:13;;;;;;;20.42;12.90;;;2.50;99.90;;;;;;5035270;28;20411;-77
2023/01/19 06:20:39;;;;;;;26.70;13.23;;;2.40;99.90;;;;;;5046931;28;20175;-74
2023/01/19 06:23:05;;;;;;;17.40;12.85;;;2.30;99.90;;;;;;5054228;28;20217;-78
2023/01/19 06:25:31;;;;;;;23.30;12.50;;;2.30;1.00;;;;;;5042491;28;20223;-74
2023/01/19 06:27:56;;;;;;;19.93;13.17;;;2.30;1.00;;;;;;5035230;28;20199;-74
2023/01/19 06:30:22;;;;;;;17.80;15.47;;;2.30;1.00;;;;;;5043670;28;20175;-74
2023/01/19 06:32:48;;;;;;;30.33;15.20;;;2.20;1.00;;;;;;5054712;28;20216;-76
2023/01/19 06:35:14;;;;;;;18.20;13.77;;;2.30;1.00;;;;;;5052292;28;20930;-72
2023/01/19 06:37:40;;;;;;;22.15;15.80;;;2.30;1.00;;;;;;5053835;28;20170;-74
2023/01/19 06:40:07;;;;;;;20.42;12.80;;;2.30;1.00;;;;;;5048867;28;20183;-74
2023/01/19 06:42:33;;;;;;;15.68;12.10;;;2.30;1.00;;;;;;5034938;28;20178;-75
2023/01/19 06:44:59;;;;;;;23.83;16.23;;;2.30;1.00;;;;;;5037364;28;20266;-74
2023/01/19 06:47:24;;;;;;;18.73;14.40;;;2.30;1.00;;;;;;5054671;28;20608;-75
2023/01/19 06:49:50;;;;;;;25.63;16.10;;;2.40;1.00;;;;;;5052745;28;20433;-75
2023/01/19 06:52:17;;;;;;;17.00;13.93;;;2.40;1.00;;;;;;5034866;28;20501;-72
2023/01/19 06:54:46;;;;;;;20.57;11.60;;;2.40;1.00;;;;;;5036161;28;20187;-74
2023/01/19 06:57:12;;;;;;;19.77;14.10;;;2.40;1.00;;;;;;5034745;28;20911;-71
2023/01/19 06:59:38;;;;;;;22.48;14.15;;;2.40;1.00;;;;;;5034363;28;20187;-74
2023/01/19 07:02:04;;;;;;;22.03;15.37;;;2.40;1.00;;;;;;5034584;28;20168;-74
2023/01/19 07:04:30;;;;;;;18.10;12.10;;;2.40;1.00;;;;;;5046047;28;20198;-75
2023/01/19 07:06:56;;;;;;;18.60;12.70;;;2.40;1.00;;;;;;5053412;28;20873;-76
2023/01/19 07:09:21;;;;;;;25.13;13.60;;;2.40;1.00;;;;;;5052671;28;20513;-71
2023/01/19 07:11:47;;;;;;;19.20;12.77;;;2.30;1.00;;;;;;5054407;28;20801;-71
2023/01/19 07:14:14;;;;;;;17.50;14.37;;;2.30;1.00;;;;;;5044393;28;20637;-71
2023/01/19 07:16:40;;;;;;;18.43;13.50;;;2.30;1.00;;;;;;5033627;28;20398;-72
2023/01/19 07:19:06;;;;;;;12.50;9.97;;;2.30;1.00;;;;;;5041287;28;20918;-76
2023/01/19 07:21:31;;;;;;;11.20;9.00;;;2.30;1.00;;;;;;5054223;28;20170;-73
2023/01/19 07:23:57;;;;;;;15.37;11.67;;;2.30;1.00;;;;;;5047672;28;20468;-72
2023/01/19 07:26:24;;;;;;;13.17;10.20;;;2.30;1.00;;;;;;5033143;28;20241;-74
2023/01/19 07:28:51;;;;;;;18.08;11.32;;;2.30;1.00;;;;;;5038316;28;20170;-73
2023/01/19 07:31:17;;;;;;;20.67;12.37;;;2.40;1.00;;;;;;5053966;28;20232;-72
2023/01/19 07:33:43;;;;;;;12.27;9.90;;;2.40;1.00;;;;;;5050666;28;20524;-74
2023/01/19 07:36:09;;;;;;;14.43;11.48;;;2.40;1.00;;;;;;5032814;28;20218;-73
2023/01/19 07:38:35;;;;;;;18.90;12.93;;;2.40;1.00;;;;;;5033497;28;20190;-74
2023/01/19 07:41:02;;;;;;;15.80;11.67;;;2.40;1.00;;;;;;5032928;28;20418;-75
2023/01/19 07:43:28;;;;;;;16.73;11.07;;;2.40;1.00;;;;;;5049309;28;20724;-73
2023/01/19 07:45:59;;;;;;;17.30;13.20;;;2.40;1.00;;;;;;5036997;28;20219;-74
2023/01/19 07:48:25;;;;;;;13.67;11.70;;;2.40;1.00;;;;;;5033827;28;20178;-74
2023/01/19 07:50:55;;;;;;;15.83;13.93;;;2.40;1.00;;;;;;5033862;28;20433;-74
2023/01/19 07:53:21;;;;;;;13.57;12.20;;;2.40;1.00;;;;;;5033108;28;20409;-73
2023/01/19 07:55:53;;;;;;;20.60;12.20;;;2.30;1.00;;;;;;5032829;28;20192;-74
2023/01/19 07:58:19;;;;;;;13.17;10.43;;;2.30;1.00;;;;;;5033686;28;20493;-73
2023/01/19 08:00:44;;;;;;;12.60;11.10;;;2.40;1.00;;;;;;5032431;28;20490;-73
2023/01/19 08:03:11;;;;;;;11.57;9.57;;;2.30;1.00;;;;;;5033451;28;20163;-74
2023/01/19 08:05:36;;;;;;;12.23;9.68;;;2.30;1.00;;;;;;5031589;28;20187;-72
2023/01/19 08:08:04;;;;;;;11.90;10.70;;;2.30;1.00;;;;;;5033365;28;20202;-73
2023/01/19 08:10:33;;;;;;;12.63;10.40;;;2.30;1.00;;;;;;5032813;28;20174;-73
2023/01/19 08:12:59;;;;;;;16.85;11.50;;;2.30;1.00;;;;;;5033317;28;20647;-74
2023/01/19 08:15:25;;;;;;;15.33;11.13;;;2.20;1.00;;;;;;5031616;28;20298;-75
2023/01/19 08:18:01;;;;;;;15.23;10.97;;;2.30;1.00;;;;;;5033382;28;20168;-74
2023/01/19 08:20:28;;;;;;;15.88;10.43;;;2.30;1.00;;;;;;5033305;28;20410;-73
2023/01/19 08:23:01;;;;;;;15.53;10.57;;;2.20;1.00;;;;;;5033185;28;20178;-74
2023/01/19 08:25:41;;;;;;;13.27;9.83;;;2.20;1.00;;;;;;5032198;28;20521;-74
2023/01/19 08:28:08;;;;;;;11.93;9.30;;;2.10;1.00;;;;;;5032835;28;20446;-72
2023/01/19 08:30:34;;;;;;;12.27;9.80;;;2.10;1.00;;;;;;5033168;28;20167;-73
2023/01/19 08:33:03;;;;;;;14.70;10.80;;;2.10;1.00;;;;;;5031808;28;20168;-73
2023/01/19 08:35:34;;;;;;;14.40;11.55;;;2.10;9.50;;;;;;5032168;28;20446;-71
2023/01/19 08:38:00;;;;;;;15.48;11.68;;;2.10;14.40;;;;;;5033094;28;20251;-73
2023/01/19 08:40:33;;;;;;;15.80;11.60;;;2.10;23.70;;;;;;5032997;28;20194;-74
2023/01/19 08:43:05;;;;;;;16.50;11.57;;;2.20;35.50;;;;;;5032455;28;20174;-73
2023/01/19 08:45:31;;;;;;;12.43;7.60;;;2.20;57.30;;;;;;5032257;28;20564;-74
2023/01/19 08:47:58;;;;;;;15.67;10.23;;;2.20;75.40;;;;;;5032859;28;20532;-73
2023/01/19 08:50:28;;;;;;;16.77;11.73;;;2.20;75.40;;;;;;5031692;28;20406;-72
2023/01/19 08:52:58;;;;;;;15.40;10.95;;;2.30;85.30;;;;;;5033111;28;20166;-72
2023/01/19 08:55:25;;;;;;;16.35;12.35;;;2.30;93.30;;;;;;5033743;28;20179;-73
2023/01/19 08:57:56;;;;;;;15.50;11.30;;;2.40;97.20;;;;;;5036973;28;20179;-74
2023/01/19 09:00:23;;;;;;;15.00;11.27;;;2.40;99.90;;;;;;5036397;28;20413;-71
2023/01/19 09:02:49;;;;;;;16.57;11.10;;;2.40;99.90;;;;;;5036869;28;20410;-72
2023/01/19 09:05:16;;;;;;;13.97;10.80;;;2.40;99.90;;;;;;5037571;28;20442;-72
2023/01/19 09:07:48;;;;;;;13.73;11.90;;;2.50;99.90;;;;;;5036644;28;20977;-73
2023/01/19 09:10:15;;;;;;;18.98;11.90;;;2.50;99.90;;;;;;5055368;28;20968;-73
2023/01/19 09:12:42;;;;;;;14.33;10.67;;;2.50;99.90;;;;;;5052293;28;20180;-72
2023/01/19 09:15:09;;;;;;;20.37;12.50;;;2.50;99.90;;;;;;5035579;28;20414;-73
2023/01/19 09:17:35;;;;;;;16.80;11.03;;;2.60;99.90;;;;;;5036958;28;20426;-73
2023/01/19 09:20:03;;;;;;;13.80;11.00;;;2.60;99.90;;;;;;5047489;28;20760;-72
2023/01/19 09:22:29;;;;;;;14.90;9.33;;;2.70;99.90;;;;;;5036479;28;20402;-72
2023/01/19 09:24:54;;;;;;;15.83;9.20;;;2.90;99.90;;;;;;5036620;28;20810;-73
2023/01/19 09:27:20;;;;;;;18.30;10.20;;;2.90;99.90;;;;;;5036179;28;20466;-72
2023/01/19 09:29:51;;;;;;;12.77;9.83;;;2.90;99.90;;;;;;5037117;28;20172;-73
2023/01/19 09:32:18;;;;;;;13.80;10.40;;;3.10;99.90;;;;;;5036463;28;20266;-71
2023/01/19 09:34:44;;;;;;;13.37;10.53;;;3.00;99.90;;;;;;5035209;28;20436;-72
2023/01/19 09:37:10;;;;;;;11.80;9.43;;;3.00;99.90;;;;;;5055879;28;20425;-72
2023/01/19 09:39:35;;;;;;;11.80;10.20;;;3.00;99.90;;;;;;5055295;28;20409;-73
2023/01/19 09:42:39;;;;;;;10.63;9.53;;;3.30;99.90;;;;;;5055186;28;20470;-70
2023/01/19 09:45:12;;;;;;;12.27;9.07;;;3.30;99.90;;;;;;5049470;28;20221;-72
2023/01/19 09:47:38;;;;;;;15.10;10.00;;;3.20;99.90;;;;;;5034739;28;21073;-72
2023/01/19 09:50:12;;;;;;;14.70;10.00;;;3.20;99.90;;;;;;5039123;28;20528;-72
2023/01/19 09:52:42;;;;;;;17.87;10.23;;;3.20;99.90;;;;;;5035417;28;20940;-72
2023/01/19 09:55:25;;;;;;;11.47;9.83;;;3.30;99.90;;;;;;5038067;28;20527;-72
2023/01/19 09:57:51;;;;;;;15.27;10.27;;;3.40;99.90;;;;;;5036228;28;20426;-70
2023/01/19 10:00:17;;;;;;;12.73;10.50;;;3.20;92.40;;;;;;5036101;28;20965;-72
2023/01/19 10:02:57;;;;;;;12.33;9.43;;;3.10;89.10;;;;;;5035803;28;20489;-73
2023/01/19 10:05:22;;;;;;;21.03;11.17;;;3.10;84.10;;;;;;5035755;28;20446;-72
2023/01/19 10:07:54;;;;;;;13.63;10.40;;;3.10;87.50;;;;;;5034730;28;20477;-69
2023/01/19 10:10:21;;;;;;;9.47;8.53;;;3.10;92.60;;;;;;5042525;28;20659;-72
2023/01/19 10:13:04;;;;;;;14.10;11.27;;;3.10;94.60;;;;;;5054860;28;20405;-70
2023/01/19 10:15:39;;;;;;;13.63;10.23;;;3.20;97.40;;;;;;5046306;28;20441;-70
2023/01/19 10:18:07;;;;;;;17.20;11.30;;;3.20;96.70;;;;;;5035322;28;20813;-71
2023/01/19 10:20:42;;;;;;;11.60;9.60;;;3.10;97.60;;;;;;5037497;28;20425;-70
2023/01/19 10:23:35;;;;;;;16.20;12.13;;;3.10;99.10;;;;;;5035350;28;20480;-70
2023/01/19 10:26:12;;;;;;;16.53;12.83;;;3.10;99.20;;;;;;5033976;28;20446;-73
2023/01/19 10:28:39;;;;;;;16.27;11.90;;;3.10;96.40;;;;;;5035172;28;20394;-72
2023/01/19 10:31:06;;;;;;;13.37;10.33;;;3.10;98.40;;;;;;5049767;28;20421;-74
2023/01/19 10:33:34;;;;;;;16.63;11.47;;;3.10;99.90;;;;;;5054368;28;20485;-71
2023/01/19 10:36:03;;;;;;;18.60;12.77;;;3.10;99.90;;;;;;5034671;28;20947;-70
2023/01/19 10:38:31;;;;;;;18.20;11.63;;;3.10;99.90;;;;;;5034800;28;20409;-72
2023/01/19 10:41:03;;;;;;;23.10;12.80;;;3.10;99.90;;;;;;5040963;28;20821;-72
2023/01/19 10:43:42;;;;;;;19.17;13.20;;;3.10;99.90;;;;;;5035062;28;20448;-72
2023/01/19 10:46:21;;;;;;;15.40;11.80;;;3.10;99.90;;;;;;5034088;28;20764;-72
2023/01/19 10:48:49;;;;;;;15.10;11.67;;;3.10;99.90;;;;;;5034731;28;20460;-72
2023/01/19 10:51:15;;;;;;;15.83;12.20;;;3.10;99.90;;;;;;5042450;28;20429;-74
2023/01/19 10:54:00;;;;;;;13.53;10.80;;;3.10;99.90;;;;;;5034629;28;20402;-71
2023/01/19 10:56:36;;;;;;;16.63;12.17;;;3.10;99.90;;;;;;5033999;28;20962;-71
2023/01/19 10:59:05;;;;;;;19.00;13.07;;;3.10;99.90;;;;;;5034640;28;20413;-71
2023/01/19 11:01:35;;;;;;;17.13;12.57;;;3.10;99.90;;;;;;5050302;28;20890;-72
2023/01/19 11:04:27;;;;;;;15.20;10.57;;;3.20;99.90;;;;;;5054262;28;20415;-73
2023/01/19 11:07:18;;;;;;;15.70;11.40;;;3.20;99.90;;;;;;5035421;28;20557;-71
2023/01/19 11:09:44;;;;;;;14.77;10.97;;;3.20;99.90;;;;;;5033994;28;20481;-70
2023/01/19 11:12:30;;;;;;;14.67;11.80;;;3.20;99.90;;;;;;5034236;28;20982;-69
2023/01/19 11:14:56;;;;;;;15.70;9.70;;;3.20;99.90;;;;;;5036153;28;20446;-69
2023/01/19 11:17:24;;;;;;;13.00;10.50;;;3.20;99.90;;;;;;5034375;28;20402;-73
2023/01/19 11:19:57;;;;;;;15.17;10.10;;;3.20;99.90;;;;;;5033485;28;20423;-70
2023/01/19 11:22:27;;;;;;;17.07;11.67;;;3.20;99.90;;;;;;5034261;28;20405;-73
2023/01/19 11:25:01;;;;;;;12.00;10.63;;;3.20;99.90;;;;;;5036536;28;20436;-73
2023/01/19 11:27:28;;;;;;;19.40;12.80;;;3.20;99.90;;;;;;5053290;28;20452;-73
2023/01/19 11:30:23;;;;;;;15.17;10.97;;;3.10;99.90;;;;;;5046776;28;20410;-73
2023/01/19 11:32:49;;;;;;;18.60;10.40;;;3.10;99.90;;;;;;5032630;28;20913;-72
2023/01/19 11:35:35;;;;;;;17.07;10.97;;;3.10;99.90;;;;;;5037021;28;20434;-71
2023/01/19 11:38:22;;;;;;;16.73;10.30;;;3.10;99.90;;;;;;5033888;28;20460;-73
2023/01/19 11:40:56;;;;;;;17.70;11.07;;;3.00;99.90;;;;;;5033929;28;20418;-73
2023/01/19 11:43:23;;;;;;;12.83;10.63;;;3.00;99.90;;;;;;5033726;28;20425;-71
2023/01/19 11:45:50;;;;;;;20.20;11.87;;;3.00;99.90;;;;;;5050568;28;20506;-73
2023/01/19 11:48:34;;;;;;;14.43;9.80;;;3.10;99.90;;;;;;5053175;28;20452;-73
2023/01/19 11:51:03;;;;;;;10.50;9.20;;;3.10;99.90;;;;;;5050712;28;20825;-72
2023/01/19 11:53:34;;;;;;;12.20;9.27;;;3.10;99.90;;;;;;5052353;28;20398;-70
2023/01/19 11:56:10;;;;;;;12.10;10.07;;;3.00;99.90;;;;;;5033538;28;20441;-73
2023/01/19 11:58:39;;;;;;;13.70;10.53;;;3.10;99.90;;;;;;5033391;28;20463;-73
2023/01/19 12:01:24;;;;;;;16.40;10.80;;;3.00;99.90;;;;;;5052090;28;20421;-73
2023/01/19 12:04:16;;;;;;;14.20;10.17;;;3.00;99.90;;;;;;5051016;28;20408;-73
2023/01/19 12:06:54;;;;;;;13.50;9.97;;;3.00;99.90;;;;;;5052452;28;20452;-73
2023/01/19 12:09:28;;;;;;;15.23;11.50;;;3.00;99.90;;;;;;5047368;28;20568;-70
2023/01/19 12:12:00;;;;;;;14.70;10.67;;;3.10;99.90;;;;;;5033385;28;20429;-73
2023/01/19 12:14:38;;;;;;;13.77;10.03;;;3.20;99.90;;;;;;5038021;28;20534;-72
2023/01/19 12:17:07;;;;;;;17.20;11.60;;;3.20;99.90;;;;;;5052998;28;20405;-73
2023/01/19 12:20:17;;;;;;;15.90;12.00;;;3.30;99.90;;;;;;5046527;28;20483;-72
2023/01/19 12:23:03;;;;;;;14.97;10.20;;;3.30;99.90;;;;;;5032798;28;20425;-71
2023/01/19 12:26:07;;;;;;;17.27;11.10;;;3.30;99.90;;;;;;5031801;28;21008;-72
2023/01/19 12:28:38;;;;;;;14.90;10.80;;;3.30;99.90;;;;;;5033027;28;20398;-73
2023/01/19 12:31:04;;;;;;;17.53;11.10;;;3.30;99.90;;;;;;5032615;28;20879;-73
2023/01/19 12:33:37;;;;;;;15.73;10.50;;;3.40;99.90;;;;;;5033143;28;20398;-73
2023/01/19 12:36:08;;;;;;;14.77;10.80;;;3.30;99.90;;;;;;5032160;28;20504;-72
2023/01/19 12:38:54;;;;;;;14.90;11.07;;;3.30;99.90;;;;;;5032817;28;20752;-71
2023/01/19 12:41:37;;;;;;;13.73;9.77;;;3.30;99.90;;;;;;5039330;28;20414;-71
2023/01/19 12:44:08;;;;;;;14.87;11.40;;;3.40;99.90;;;;;;5032773;28;20456;-74
2023/01/19 12:46:53;;;;;;;11.13;9.70;;;3.40;99.90;;;;;;5030936;28;20862;-72
2023/01/19 12:49:22;;;;;;;14.53;10.73;;;3.40;99.90;;;;;;5036109;28;20413;-73
2023/01/19 12:51:50;;;;;;;23.40;9.90;;;3.30;99.90;;;;;;5052770;28;20405;-72
2023/01/19 12:54:32;;;;;;;14.10;10.90;;;3.30;99.90;;;;;;5048867;28;20433;-74
2023/01/19 12:57:17;;;;;;;17.97;11.80;;;3.30;99.90;;;;;;5032499;28;20403;-73
2023/01/19 12:59:43;;;;;;;16.40;11.30;;;3.40;99.90;;;;;;5038876;28;20428;-73
2023/01/19 13:02:26;;;;;;;14.00;11.00;;;3.40;99.90;;;;;;5052658;28;20401;-69
2023/01/19 13:05:12;;;;;;;16.83;11.07;;;3.40;99.90;;;;;;5035167;28;20491;-71
2023/01/19 13:08:06;;;;;;;18.03;10.80;;;3.40;99.90;;;;;;5031890;28;20879;-72